Terminal Aerodrome Forecast
Issued by NWS Wilmington, NC

Home | Current Version | Previous Version | Text Only | Print | Product List | Glossary On
Versions: 1 2 3 4 5 6 7 8 9 10 11 12 13 14 15 16 17 18
587
FTUS42 KILM 251120
TAFMYR
TAF
KMYR 251120Z 2512/2612 28009KT 5SM BR VCSH BKN006
      TEMPO 2512/2516 P6SM NSW OVC012
     FM251600 25014KT P6SM VCSH BKN015
      TEMPO 2516/2520 BKN008
     FM252000 25012KT P6SM BKN015
     FM260000 27010KT P6SM BKN025
     FM260700 30005KT P6SM SCT015=

USA.gov is the U.S. government's official web portal to all federal, state and local government web resources and services.